Time;durP1;ratioP1;P1;durP2;ratioP2;P2;SDS_P1;SDS_P2;PMS_P1;PMS_P2;Temp;Humidity;BMP_temperature;BMP_pressure;BME280_temperature;BME280_humidity;BME280_pressure;Samples;Min_cycle;Max_cycle;Signal;HPM_P1;HPM_P2
2023/01/09 00:02:06;;;;;;;17.60;12.43;;;;;;;0.86;100.00;93330.72;5092400;28;20499;-69
2023/01/09 00:04:33;;;;;;;14.98;9.43;;;;;;;1.06;100.00;93338.09;5079864;28;20412;-69
2023/01/09 00:07:00;;;;;;;15.18;9.88;;;;;;;1.13;100.00;93323.94;5091231;28;20101;-69
2023/01/09 00:09:26;;;;;;;13.10;8.38;;;;;;;1.07;100.00;93319.47;5092511;28;20044;-69
2023/01/09 00:11:54;;;;;;;19.77;12.10;;;;;;;1.08;100.00;93310.94;5092189;28;20065;-69
2023/01/09 00:14:22;;;;;;;13.85;8.93;;;;;;;1.22;100.00;93323.97;5092503;28;20135;-69
2023/01/09 00:16:51;;;;;;;42.28;28.00;;;;;;;1.31;100.00;93325.63;5092250;28;20047;-69
2023/01/09 00:19:18;;;;;;;12.93;8.63;;;;;;;1.38;100.00;93325.81;5092245;28;20553;-69
2023/01/09 00:21:45;;;;;;;18.27;10.80;;;;;;;1.33;100.00;93316.94;5092408;28;20100;-70
2023/01/09 00:24:11;;;;;;;15.65;10.60;;;;;;;1.44;100.00;93332.81;5092284;28;20469;-69
2023/01/09 00:26:44;;;;;;;13.90;8.73;;;;;;;1.48;100.00;93335.84;5092030;28;20047;-69
2023/01/09 00:29:11;;;;;;;10.80;7.65;;;;;;;1.59;100.00;93331.28;5092005;28;20464;-69
2023/01/09 00:31:38;;;;;;;15.45;9.45;;;;;;;1.64;100.00;93335.09;5092034;28;20097;-69
2023/01/09 00:34:10;;;;;;;13.50;9.00;;;;;;;1.66;100.00;93338.31;5092092;28;20090;-70
2023/01/09 00:36:36;;;;;;;12.73;8.27;;;;;;;1.68;100.00;93336.41;5092052;28;20423;-70
2023/01/09 00:39:03;;;;;;;14.52;9.43;;;;;;;1.62;100.00;93331.94;5090692;28;20044;-69
2023/01/09 00:41:35;;;;;;;13.45;9.90;;;;;;;1.62;100.00;93324.34;5091901;28;20048;-69
2023/01/09 00:44:06;;;;;;;15.05;10.15;;;;;;;1.63;100.00;93319.13;5091738;28;20048;-69
2023/01/09 00:46:39;;;;;;;16.23;11.70;;;;;;;1.61;100.00;93333.66;5091989;28;20040;-69
2023/01/09 00:49:09;;;;;;;17.60;11.25;;;;;;;1.63;100.00;93325.94;5091784;28;20048;-69
2023/01/09 00:51:37;;;;;;;15.30;10.73;;;;;;;1.60;100.00;93334.63;5091741;28;20048;-69
2023/01/09 00:54:04;;;;;;;16.67;11.05;;;;;;;1.58;100.00;93334.75;5091434;28;20078;-69
2023/01/09 00:56:32;;;;;;;18.25;11.77;;;;;;;1.58;100.00;93329.69;5091710;28;20109;-70
2023/01/09 00:58:59;;;;;;;18.05;13.13;;;;;;;1.59;100.00;93330.50;5091251;28;20447;-69
2023/01/09 01:01:25;;;;;;;22.42;14.13;;;;;;;1.52;100.00;93317.66;5091461;28;20492;-69
2023/01/09 01:03:53;;;;;;;24.42;15.60;;;;;;;1.58;100.00;93319.56;5091593;28;20102;-69
2023/01/09 01:09:05;;;;;;;22.63;15.27;;;;;;;1.65;100.00;93318.97;5080770;28;20551;-69
2023/01/09 01:11:33;;;;;;;21.52;15.88;;;;;;;1.67;100.00;93312.03;5090842;28;20511;-69
2023/01/09 01:14:01;;;;;;;23.85;17.63;;;;;;;1.70;100.00;93302.38;5078430;28;20048;-69
2023/01/09 01:16:27;;;;;;;24.67;17.42;;;;;;;1.74;100.00;93300.34;5090907;28;20048;-69
2023/01/09 01:18:54;;;;;;;23.63;17.10;;;;;;;1.75;100.00;93296.06;5091464;28;20098;-69
2023/01/09 01:21:22;;;;;;;21.95;16.85;;;;;;;1.76;100.00;93298.44;5090953;28;20048;-69
2023/01/09 01:23:49;;;;;;;27.83;17.60;;;;;;;1.75;100.00;93304.44;5090612;28;20496;-69
2023/01/09 01:26:16;;;;;;;25.98;17.17;;;;;;;1.76;100.00;93300.97;5090966;28;20109;-69
2023/01/09 01:28:43;;;;;;;25.85;17.70;;;;;;;1.79;100.00;93299.88;5090911;28;20043;-69
2023/01/09 01:31:17;;;;;;;26.70;17.10;;;;;;;1.77;100.00;93294.97;5090801;28;20093;-69
2023/01/09 01:33:43;;;;;;;25.98;18.35;;;;;;;1.81;100.00;93291.16;5090749;28;20164;-69
2023/01/09 01:36:10;;;;;;;25.15;17.92;;;;;;;1.78;100.00;93278.81;5090862;28;20040;-69
2023/01/09 01:38:39;;;;;;;26.75;18.92;;;;;;;1.81;100.00;93280.25;5091095;28;20044;-69
2023/01/09 01:41:06;;;;;;;27.65;19.05;;;;;;;1.83;100.00;93281.69;5090762;28;20040;-69
2023/01/09 01:43:54;;;;;;;29.80;19.83;;;;;;;1.88;100.00;93278.69;5090573;28;20508;-69
2023/01/09 01:46:21;;;;;;;27.90;19.88;;;;;;;1.86;100.00;93271.25;5077389;28;20044;-70
2023/01/09 01:48:49;;;;;;;28.83;20.80;;;;;;;1.93;100.00;93278.22;5090541;28;20397;-70
2023/01/09 01:51:19;;;;;;;29.70;20.95;;;;;;;1.90;100.00;93273.47;5090214;28;20047;-69
2023/01/09 01:53:52;;;;;;;30.83;20.60;;;;;;;1.98;100.00;93269.22;5090151;28;20048;-69
2023/01/09 01:56:23;;;;;;;31.55;20.48;;;;;;;2.02;100.00;93269.69;5090721;28;20084;-69
2023/01/09 01:58:55;;;;;;;30.83;21.25;;;;;;;2.05;100.00;93263.53;5090263;28;20138;-69
2023/01/09 02:01:23;;;;;;;31.50;21.55;;;;;;;2.10;100.00;93256.25;5090575;28;20415;-69
2023/01/09 02:03:52;;;;;;;31.17;21.08;;;;;;;2.17;100.00;93249.59;5089936;28;20048;-69
2023/01/09 02:06:19;;;;;;;31.48;21.25;;;;;;;2.16;100.00;93245.50;5090161;28;20070;-69
2023/01/09 02:08:48;;;;;;;28.60;20.17;;;;;;;2.20;100.00;93246.75;5090301;28;20052;-69
2023/01/09 02:11:16;;;;;;;30.25;21.25;;;;;;;2.23;100.00;93243.13;5087835;28;20411;-70
2023/01/09 02:13:44;;;;;;;32.75;23.38;;;;;;;2.29;100.00;93245.03;5087457;28;21128;-70
2023/01/09 02:16:22;;;;;;;31.45;20.50;;;;;;;2.30;100.00;93249.13;5089952;28;20458;-69
2023/01/09 02:18:51;;;;;;;31.88;23.02;;;;;;;2.33;100.00;93242.97;5089704;28;20093;-69
2023/01/09 02:21:28;;;;;;;32.53;21.75;;;;;;;2.30;100.00;93239.00;5089641;28;20048;-69
2023/01/09 02:24:28;;;;;;;32.75;21.63;;;;;;;2.27;100.00;93226.66;5089734;28;20044;-69
2023/01/09 02:27:11;;;;;;;31.27;21.08;;;;;;;2.36;100.00;93243.44;5089572;28;20089;-69
2023/01/09 02:30:22;;;;;;;29.55;21.05;;;;;;;2.42;100.00;93241.22;5089818;28;20458;-69
2023/01/09 02:33:20;;;;;;;31.65;21.30;;;;;;;2.45;100.00;93239.16;5086400;28;20500;-69
2023/01/09 02:36:01;;;;;;;29.25;21.08;;;;;;;2.48;100.00;93243.13;5087964;28;20093;-70
2023/01/09 02:38:35;;;;;;;32.75;21.70;;;;;;;2.48;100.00;93236.31;5089278;28;21045;-69
2023/01/09 02:41:08;;;;;;;32.42;22.17;;;;;;;2.44;100.00;93226.66;5089470;28;20072;-69
2023/01/09 02:43:35;;;;;;;32.05;21.13;;;;;;;2.52;100.00;93229.97;5088912;28;20066;-69
2023/01/09 02:46:01;;;;;;;31.80;20.90;;;;;;;2.51;100.00;93227.59;5089194;28;20052;-70
2023/01/09 02:48:31;;;;;;;30.05;20.98;;;;;;;2.61;100.00;93222.34;5089219;28;20113;-70
2023/01/09 02:51:11;;;;;;;30.85;21.38;;;;;;;2.58;100.00;93231.06;5088867;28;20052;-70
2023/01/09 02:53:58;;;;;;;30.00;21.33;;;;;;;2.59;100.00;93230.13;5088956;28;20546;-70
2023/01/09 02:56:42;;;;;;;30.05;20.77;;;;;;;2.60;100.00;93233.47;5089032;28;20048;-70
2023/01/09 02:59:23;;;;;;;31.00;21.30;;;;;;;2.62;100.00;93234.06;5088751;28;20044;-69
2023/01/09 03:02:05;;;;;;;31.00;21.45;;;;;;;2.60;100.00;93220.78;5088247;28;20293;-70
2023/01/09 03:04:44;;;;;;;31.38;20.83;;;;;;;2.66;100.00;93225.19;5088797;28;20046;-71
2023/01/09 03:07:21;;;;;;;32.20;22.73;;;;;;;2.74;100.00;93234.56;5088872;28;20044;-70
2023/01/09 03:09:54;;;;;;;31.83;21.27;;;;;;;2.74;100.00;93237.09;5088855;28;20044;-70
2023/01/09 03:12:24;;;;;;;30.58;21.48;;;;;;;2.66;100.00;93245.50;5088717;28;20085;-70
2023/01/09 03:14:56;;;;;;;36.38;23.55;;;;;;;2.68;100.00;93246.13;5088505;28;20051;-69
2023/01/09 03:17:28;;;;;;;32.83;21.33;;;;;;;2.73;100.00;93255.81;5088769;28;20055;-70
2023/01/09 03:19:57;;;;;;;35.28;23.38;;;;;;;2.74;100.00;93242.16;5088903;28;20044;-70
2023/01/09 03:22:24;;;;;;;32.95;22.50;;;;;;;2.76;100.00;93232.63;5088768;28;20040;-69
2023/01/09 03:24:51;;;;;;;36.85;23.17;;;;;;;2.72;100.00;93234.69;5088502;28;20077;-69
2023/01/09 03:27:18;;;;;;;34.53;22.58;;;;;;;2.66;100.00;93228.53;5088527;28;20036;-69
2023/01/09 03:29:45;;;;;;;35.45;22.55;;;;;;;2.73;100.00;93225.34;5088473;28;20089;-69
2023/01/09 03:32:12;;;;;;;31.65;21.60;;;;;;;2.73;100.00;93230.44;5088608;28;20545;-69
2023/01/09 03:34:39;;;;;;;34.22;22.63;;;;;;;2.69;100.00;93232.50;5088631;28;20435;-70
2023/01/09 03:37:07;;;;;;;31.63;20.88;;;;;;;2.72;100.00;93232.16;5088635;28;20105;-70
2023/01/09 03:39:34;;;;;;;34.05;23.30;;;;;;;2.76;100.00;93223.28;5088666;28;20059;-69
2023/01/09 03:42:01;;;;;;;34.05;22.65;;;;;;;2.77;100.00;93224.06;5088458;28;20093;-69
2023/01/09 03:44:27;;;;;;;31.58;22.35;;;;;;;2.76;100.00;93232.63;5088499;28;20044;-69
2023/01/09 03:46:54;;;;;;;30.77;21.70;;;;;;;2.79;100.00;93228.03;5088364;28;20427;-70
2023/01/09 03:49:21;;;;;;;30.58;21.13;;;;;;;2.75;100.00;93225.97;5088341;28;20487;-69
2023/01/09 03:51:48;;;;;;;34.22;23.20;;;;;;;2.80;100.00;93231.38;5088019;28;20487;-69
2023/01/09 03:54:16;;;;;;;30.00;20.55;;;;;;;2.86;100.00;93228.19;5088289;28;20052;-70
2023/01/09 03:56:42;;;;;;;30.48;22.15;;;;;;;2.89;100.00;93232.94;5088410;28;20094;-70
2023/01/09 03:59:09;;;;;;;25.90;18.48;;;;;;;2.89;100.00;93224.53;5088147;28;20036;-70
2023/01/09 04:01:36;;;;;;;24.48;17.45;;;;;;;2.88;100.00;93221.19;5088561;28;20055;-70
2023/01/09 04:04:03;;;;;;;29.02;19.52;;;;;;;2.89;100.00;93225.34;5088475;28;20044;-70
2023/01/09 04:06:29;;;;;;;25.17;18.02;;;;;;;2.86;100.00;93228.19;5087953;28;20546;-69
2023/01/09 04:08:56;;;;;;;26.63;19.33;;;;;;;2.82;100.00;93216.00;5088686;28;20101;-69
2023/01/09 04:11:24;;;;;;;25.25;18.27;;;;;;;2.80;100.00;93224.56;5088344;28;20044;-70
2023/01/09 04:13:51;;;;;;;25.77;18.85;;;;;;;2.84;100.00;93219.16;5089851;28;20109;-69
2023/01/09 04:16:17;;;;;;;25.98;17.88;;;;;;;2.84;100.00;93221.69;5092080;28;20093;-70
2023/01/09 04:18:44;;;;;;;22.30;17.88;;;;;;;2.84;100.00;93229.28;5091739;28;20118;-69
2023/01/09 04:21:11;;;;;;;20.25;15.10;;;;;;;2.81;100.00;93225.34;5091947;28;20047;-69
2023/01/09 04:23:37;;;;;;;26.17;19.92;;;;;;;2.85;100.00;93223.25;5091681;28;20553;-70
2023/01/09 04:26:04;;;;;;;24.13;19.00;;;;;;;2.83;100.00;93213.28;5091951;28;20176;-70
2023/01/09 04:28:32;;;;;;;24.98;17.52;;;;;;;2.82;100.00;93221.06;5091855;28;20048;-70
2023/01/09 04:30:59;;;;;;;25.83;19.40;;;;;;;2.78;100.00;93210.44;5091562;28;20511;-69
2023/01/09 04:33:26;;;;;;;22.83;16.38;;;;;;;2.79;100.00;93222.19;5091496;28;20556;-70
2023/01/09 04:35:52;;;;;;;24.02;17.17;;;;;;;2.77;100.00;93217.25;5091656;28;20096;-70
2023/01/09 04:38:19;;;;;;;22.92;16.90;;;;;;;2.75;100.00;93214.09;5091437;28;20427;-69
2023/01/09 04:40:47;;;;;;;23.38;17.10;;;;;;;2.78;100.00;93210.44;5091149;28;20513;-69
2023/01/09 04:43:14;;;;;;;22.58;17.10;;;;;;;2.78;100.00;93208.69;5091513;28;20460;-69
2023/01/09 04:45:42;;;;;;;26.25;17.70;;;;;;;2.78;100.00;93201.09;5091284;28;20101;-69
2023/01/09 04:48:09;;;;;;;24.75;17.83;;;;;;;2.83;100.00;93200.63;5091093;28;20086;-69
2023/01/09 04:50:36;;;;;;;22.85;16.92;;;;;;;2.83;100.00;93203.16;5091414;28;20094;-69
2023/01/09 04:53:03;;;;;;;25.90;18.92;;;;;;;2.86;100.00;93202.81;5091038;28;20048;-69
2023/01/09 04:55:29;;;;;;;27.02;19.40;;;;;;;2.83;100.00;93205.69;5090868;28;20101;-69
2023/01/09 04:57:56;;;;;;;24.85;17.42;;;;;;;2.81;100.00;93197.44;5091339;28;20463;-69
2023/01/09 05:00:23;;;;;;;26.13;16.85;;;;;;;2.80;100.00;93195.84;5090809;28;20040;-69
2023/01/09 05:02:51;;;;;;;24.40;18.00;;;;;;;2.83;100.00;93205.69;5091089;28;20113;-69
2023/01/09 05:05:18;;;;;;;27.23;19.48;;;;;;;2.88;100.00;93205.19;5091136;28;20044;-69
2023/01/09 05:07:45;;;;;;;26.05;18.15;;;;;;;2.91;100.00;93208.19;5091136;28;20093;-69
2023/01/09 05:10:12;;;;;;;24.45;18.48;;;;;;;2.84;100.00;93197.13;5091121;28;20443;-69
2023/01/09 05:12:39;;;;;;;24.95;18.02;;;;;;;2.88;100.00;93215.34;5090716;28;20127;-69
2023/01/09 05:15:07;;;;;;;26.20;18.02;;;;;;;2.89;100.00;93222.78;5090836;28;20117;-69
2023/01/09 05:17:34;;;;;;;28.13;18.23;;;;;;;2.93;100.00;93226.56;5090971;28;20450;-69
2023/01/09 05:20:02;;;;;;;32.30;22.15;;;;;;;2.75;100.00;93198.06;5090659;28;20044;-70
2023/01/09 05:22:29;;;;;;;39.00;24.80;;;;;;;2.92;100.00;93225.00;5090642;28;20112;-69
2023/01/09 05:24:56;;;;;;;28.52;19.42;;;;;;;2.92;100.00;93221.69;5089891;28;20048;-70
2023/01/09 05:27:22;;;;;;;28.95;20.27;;;;;;;2.93;100.00;93218.97;5090579;28;20097;-70
2023/01/09 05:29:49;;;;;;;35.88;22.25;;;;;;;2.92;100.00;93214.84;5090245;28;20512;-70
2023/01/09 05:32:16;;;;;;;38.40;23.08;;;;;;;2.88;100.00;93212.81;5090273;28;20051;-70
2023/01/09 05:34:42;;;;;;;33.38;21.65;;;;;;;2.86;100.00;93207.09;5090404;28;20101;-70
2023/01/09 05:37:11;;;;;;;31.33;20.80;;;;;;;2.86;100.00;93212.19;5090216;28;20040;-70
2023/01/09 05:39:37;;;;;;;33.78;21.67;;;;;;;2.88;100.00;93207.72;5090326;28;20097;-70
2023/01/09 05:42:04;;;;;;;38.08;22.63;;;;;;;2.91;100.00;93215.81;5090129;28;20548;-70
2023/01/09 05:44:31;;;;;;;38.28;23.48;;;;;;;2.94;100.00;93215.50;5090431;28;20143;-70
2023/01/09 05:46:58;;;;;;;32.30;20.65;;;;;;;2.90;100.00;93214.22;5090141;28;20121;-69
2023/01/09 05:49:25;;;;;;;24.13;17.08;;;;;;;2.93;100.00;93213.88;5089925;28;20117;-70
2023/01/09 05:51:51;;;;;;;23.98;18.95;;;;;;;2.94;100.00;93202.81;5090195;28;20036;-70
2023/01/09 05:54:19;;;;;;;24.70;17.35;;;;;;;2.94;100.00;93196.94;5089727;28;20110;-70
2023/01/09 05:56:46;;;;;;;24.48;16.38;;;;;;;2.98;100.00;93199.94;5089573;28;20883;-70
2023/01/09 05:59:13;;;;;;;21.42;16.65;;;;;;;3.04;100.00;93194.19;5090143;28;20044;-70
2023/01/09 06:01:39;;;;;;;21.30;14.82;;;;;;;3.07;100.00;93199.72;5089820;28;20081;-70
2023/01/09 06:04:06;;;;;;;18.75;13.90;;;;;;;3.10;100.00;93201.16;5089855;28;20097;-70
2023/01/09 06:06:33;;;;;;;21.98;14.45;;;;;;;3.13;100.00;93194.97;5086152;28;20557;-69
2023/01/09 06:09:00;;;;;;;25.17;15.73;;;;;;;3.16;100.00;93192.09;5086814;28;20080;-68
2023/01/09 06:11:28;;;;;;;23.80;16.50;;;;;;;3.13;100.00;93188.16;5089116;28;20040;-70
2023/01/09 06:13:54;;;;;;;21.20;15.02;;;;;;;3.16;100.00;93192.88;5089457;28;20089;-68
2023/01/09 06:16:21;;;;;;;23.80;14.88;;;;;;;3.17;100.00;93178.44;5089376;28;20548;-68
2023/01/09 06:18:48;;;;;;;25.67;15.95;;;;;;;3.17;100.00;93191.16;5089510;28;20040;-69
2023/01/09 06:21:14;;;;;;;24.10;16.17;;;;;;;3.15;100.00;93191.31;5089398;28;20048;-69
2023/01/09 06:23:41;;;;;;;23.25;16.58;;;;;;;3.17;100.00;93191.94;5089049;28;20040;-68
2023/01/09 06:26:08;;;;;;;22.52;15.43;;;;;;;3.17;100.00;93179.25;5089456;28;20133;-70
2023/01/09 06:28:36;;;;;;;24.92;15.77;;;;;;;3.15;100.00;93177.84;5089501;28;20072;-69
2023/01/09 06:31:03;;;;;;;22.15;14.88;;;;;;;3.20;100.00;93183.22;5089099;28;20081;-69
2023/01/09 06:33:30;;;;;;;23.75;15.30;;;;;;;3.27;100.00;93181.59;5089302;28;20098;-69
2023/01/09 06:35:57;;;;;;;23.90;15.88;;;;;;;3.27;100.00;93175.72;5089123;28;20064;-69
2023/01/09 06:38:24;;;;;;;22.48;16.58;;;;;;;3.30;100.00;93171.13;5088355;28;20501;-69
2023/01/09 06:40:51;;;;;;;26.08;16.05;;;;;;;3.32;100.00;93181.09;5089475;28;20040;-70
2023/01/09 06:43:17;;;;;;;24.08;17.20;;;;;;;3.34;100.00;93181.72;5088911;28;20079;-69
2023/01/09 06:45:45;;;;;;;24.35;15.55;;;;;;;3.28;100.00;93178.09;5089239;28;20040;-69
2023/01/09 06:48:13;;;;;;;22.00;15.45;;;;;;;3.14;100.00;93153.41;5089228;28;20089;-69
2023/01/09 06:50:39;;;;;;;44.28;22.55;;;;;;;3.41;100.00;93181.84;5088824;28;20048;-69
2023/01/09 06:53:06;;;;;;;23.63;16.42;;;;;;;3.45;100.00;93183.09;5088710;28;20324;-69
2023/01/09 06:55:33;;;;;;;23.73;16.52;;;;;;;3.43;100.00;93195.94;5088986;28;20105;-68
2023/01/09 06:57:59;;;;;;;23.27;14.98;;;;;;;3.48;100.00;93195.47;5088993;28;20044;-69
2023/01/09 07:00:27;;;;;;;22.63;14.75;;;;;;;3.48;100.00;93187.84;5088791;28;20048;-69
2023/01/09 07:02:55;;;;;;;19.77;14.25;;;;;;;3.57;100.00;93189.38;5088663;28;20094;-69
2023/01/09 07:05:21;;;;;;;20.50;14.95;;;;;;;3.58;100.00;93193.53;5088593;28;20097;-69
2023/01/09 07:07:48;;;;;;;23.67;16.33;;;;;;;3.62;100.00;93191.44;5085956;28;20055;-70
2023/01/09 07:10:15;;;;;;;23.38;16.13;;;;;;;3.56;100.00;93181.94;5088524;28;20450;-69
2023/01/09 07:12:42;;;;;;;21.67;15.98;;;;;;;3.69;100.00;93196.63;5088510;28;20043;-69
2023/01/09 07:15:09;;;;;;;24.88;17.20;;;;;;;3.73;100.00;93201.22;5088825;28;20438;-69
2023/01/09 07:17:36;;;;;;;19.75;14.90;;;;;;;3.76;100.00;93204.38;5088697;28;20044;-69
2023/01/09 07:20:05;;;;;;;20.67;15.18;;;;;;;3.82;100.00;93206.22;5088838;28;20047;-69
2023/01/09 07:22:32;;;;;;;19.90;14.43;;;;;;;3.79;100.00;93201.50;5088704;28;20036;-69
2023/01/09 07:24:58;;;;;;;19.73;14.02;;;;;;;3.80;100.00;93198.78;5088615;28;20036;-69
2023/01/09 07:27:25;;;;;;;20.17;14.00;;;;;;;3.81;100.00;93191.94;5088599;28;20044;-69
2023/01/09 07:29:52;;;;;;;22.10;15.20;;;;;;;4.03;100.00;93192.91;5088623;28;20097;-69
2023/01/09 07:32:19;;;;;;;22.98;16.13;;;;;;;4.15;100.00;93195.84;5088448;28;20089;-69
2023/01/09 07:34:47;;;;;;;28.13;17.08;;;;;;;4.25;100.00;93200.69;5088532;28;20097;-69
2023/01/09 07:37:15;;;;;;;24.65;16.60;;;;;;;4.38;100.00;93202.66;5088578;28;20139;-69
2023/01/09 07:39:43;;;;;;;29.02;18.70;;;;;;;4.49;100.00;93207.34;5088499;28;20048;-69
2023/01/09 07:42:10;;;;;;;28.67;18.95;;;;;;;4.60;100.00;93203.63;5088175;28;20046;-69
2023/01/09 07:44:36;;;;;;;23.10;16.42;;;;;;;4.72;100.00;93215.91;5088269;28;20036;-69
2023/01/09 07:47:03;;;;;;;21.95;14.25;;;;;;;4.76;100.00;93215.38;5088227;28;20124;-69
2023/01/09 07:49:30;;;;;;;21.38;14.25;;;;;;;4.88;100.00;93225.94;5091198;28;20109;-69
2023/01/09 07:51:57;;;;;;;26.27;14.65;;;;;;;4.95;100.00;93231.09;5092394;28;20546;-69
2023/01/09 07:54:25;;;;;;;21.60;14.93;;;;;;;4.98;100.00;93229.97;5092323;28;20056;-69
2023/01/09 07:56:51;;;;;;;22.25;13.40;;;;;;;4.87;100.00;93233.75;5092214;28;20097;-69
2023/01/09 07:59:18;;;;;;;23.52;15.05;;;;;;;4.88;100.00;93233.56;5092342;28;20048;-69
2023/01/09 08:01:45;;;;;;;18.60;12.18;;;;;;;4.77;100.00;93229.69;5079208;28;20456;-69
2023/01/09 08:04:13;;;;;;;15.75;11.70;;;;;;;4.78;100.00;93235.56;5092612;28;20044;-69
2023/01/09 08:06:40;;;;;;;18.65;13.05;;;;;;;4.78;100.00;93236.34;5092399;28;20036;-69
2023/01/09 08:09:06;;;;;;;20.85;13.90;;;;;;;4.81;100.00;93236.00;5092142;28;20046;-69
2023/01/09 08:11:34;;;;;;;20.08;13.70;;;;;;;4.74;100.00;93249.59;5092426;28;20089;-69
2023/01/09 08:14:01;;;;;;;20.45;13.75;;;;;;;4.69;100.00;93242.50;5092358;28;20381;-69
2023/01/09 08:16:28;;;;;;;20.98;14.10;;;;;;;4.66;100.00;93237.72;5092211;28;20139;-69
2023/01/09 08:18:55;;;;;;;17.48;12.38;;;;;;;4.67;100.00;93237.56;5092435;28;20540;-69
2023/01/09 08:21:21;;;;;;;17.90;12.30;;;;;;;4.61;100.00;93217.09;5092392;28;20093;-69
2023/01/09 08:23:48;;;;;;;17.13;12.02;;;;;;;4.69;100.00;93224.69;5091687;28;20113;-69
2023/01/09 08:26:15;;;;;;;18.48;13.32;;;;;;;4.70;100.00;93222.91;5091976;28;20401;-69
2023/01/09 08:28:43;;;;;;;17.90;11.75;;;;;;;4.64;100.00;93232.81;5092091;28;20056;-69
2023/01/09 08:31:10;;;;;;;18.88;13.55;;;;;;;4.64;100.00;93230.28;5091762;28;20044;-69
2023/01/09 08:33:36;;;;;;;18.42;13.38;;;;;;;4.59;100.00;93235.09;5091960;28;20044;-69
2023/01/09 08:36:03;;;;;;;18.40;13.38;;;;;;;4.53;100.00;93223.84;5092045;28;20527;-69
2023/01/09 08:38:30;;;;;;;47.15;31.77;;;;;;;4.63;100.00;93230.47;5091390;28;20077;-69
2023/01/09 08:40:57;;;;;;;16.13;12.43;;;;;;;4.70;100.00;93230.53;5092006;28;20044;-69
2023/01/09 08:49:01;;;;;;;18.50;11.88;;;;;;;4.64;100.00;93220.09;5089861;28;20063;-69
2023/01/09 08:51:28;;;;;;;19.88;13.80;;;;;;;4.69;100.00;93224.69;5090916;28;20048;-69
2023/01/09 08:53:54;;;;;;;19.38;13.73;;;;;;;4.71;100.00;93216.88;5089561;28;20439;-69
2023/01/09 08:56:21;;;;;;;33.53;20.20;;;;;;;4.75;100.00;93213.81;5089884;28;20052;-69
2023/01/09 08:58:48;;;;;;;26.38;16.58;;;;;;;4.77;100.00;93211.09;5090751;28;20066;-69
2023/01/09 09:01:18;;;;;;;19.85;12.75;;;;;;;4.77;100.00;93203.47;5090986;28;20060;-69
2023/01/09 09:03:44;;;;;;;27.73;16.23;;;;;;;4.76;100.00;93201.84;5091639;28;20040;-69
2023/01/09 09:06:11;;;;;;;23.60;13.95;;;;;;;4.79;100.00;93202.31;5091662;28;20484;-69
2023/01/09 09:08:38;;;;;;;16.92;12.30;;;;;;;4.92;100.00;93196.59;5091536;28;20101;-69
2023/01/09 09:11:05;;;;;;;14.82;10.43;;;;;;;5.03;100.00;93190.31;5091554;28;20044;-69
2023/01/09 09:13:31;;;;;;;17.95;11.48;;;;;;;5.11;100.00;93184.34;5091057;28;20427;-69
2023/01/09 09:15:58;;;;;;;17.27;11.35;;;;;;;5.18;100.00;93184.41;5091095;28;20390;-69
2023/01/09 09:18:26;;;;;;;15.95;10.90;;;;;;;5.24;100.00;93181.16;5091210;28;20040;-69
2023/01/09 09:20:53;;;;;;;18.70;12.00;;;;;;;5.38;100.00;93173.69;5091420;28;20089;-69
2023/01/09 09:23:21;;;;;;;26.83;16.65;;;;;;;5.52;100.00;93180.53;5090833;28;20053;-69
2023/01/09 09:25:48;;;;;;;17.35;11.52;;;;;;;5.56;100.00;93163.88;5091269;28;20058;-69
2023/01/09 09:28:14;;;;;;;15.70;10.80;;;;;;;5.68;100.00;93156.56;5090858;28;20101;-69
2023/01/09 09:30:41;;;;;;;16.75;10.57;;;;;;;5.81;100.00;93152.56;5090980;28;20047;-69
2023/01/09 09:33:08;;;;;;;15.07;10.23;;;;;;;5.92;100.00;93143.66;5090679;28;20044;-69
2023/01/09 09:35:36;;;;;;;70.60;32.55;;;;;;;5.98;100.00;93150.56;5090786;28;20048;-69
2023/01/09 09:38:05;;;;;;;24.20;14.23;;;;;;;6.21;100.00;93140.19;5091048;28;20493;-69
2023/01/09 09:40:44;;;;;;;21.15;13.73;;;;;;;6.28;100.00;93120.66;5090953;28;20056;-69
2023/01/09 09:46:27;;;;;;;45.97;24.85;;;;;;;6.67;100.00;93138.19;5091251;28;20055;-69
2023/01/09 09:48:57;;;;;;;28.40;14.63;;;;;;;6.77;100.00;93122.53;5090890;28;20036;-69
2023/01/09 09:51:44;;;;;;;71.80;33.80;;;;;;;6.88;100.00;93123.75;5090740;28;20044;-69
2023/01/09 09:54:14;;;;;;;27.42;15.48;;;;;;;6.85;100.00;93101.94;5090543;28;20450;-69
2023/01/09 09:56:48;;;;;;;18.65;11.50;;;;;;;6.90;100.00;93091.94;5090390;28;20077;-69
2023/01/09 09:59:18;;;;;;;14.88;9.57;;;;;;;6.92;100.00;93090.00;5090515;28;20044;-69
2023/01/09 10:01:52;;;;;;;48.55;24.05;;;;;;;7.01;100.00;93088.06;5090061;28;20059;-69
2023/01/09 10:04:22;;;;;;;33.65;17.52;;;;;;;7.09;100.00;93082.78;5090507;28;20101;-69
2023/01/09 10:06:55;;;;;;;20.33;11.93;;;;;;;7.11;100.00;93071.59;5090186;28;20105;-69
2023/01/09 10:09:34;;;;;;;35.45;18.42;;;;;;;7.21;100.00;93060.03;5090491;28;20052;-69
2023/01/09 10:12:10;;;;;;;43.17;20.83;;;;;;;7.46;100.00;93045.94;5089790;28;20491;-69
2023/01/09 10:14:37;;;;;;;32.58;17.55;;;;;;;7.68;100.00;93045.78;5089927;28;20098;-69
2023/01/09 10:17:20;;;;;;;14.25;9.43;;;;;;;7.73;100.00;93036.53;5089763;28;20060;-69
2023/01/09 10:20:22;;;;;;;14.80;9.73;;;;;;;7.89;100.00;93032.00;5089789;28;20040;-69
2023/01/09 10:23:01;;;;;;;29.80;17.20;;;;;;;8.10;100.00;93022.56;5089716;28;20583;-69
2023/01/09 10:25:38;;;;;;;17.33;10.25;;;;;;;8.16;100.00;93019.97;5089560;28;20088;-69
2023/01/09 10:28:17;;;;;;;19.92;12.82;;;;;;;8.21;100.00;93013.47;5089708;28;20048;-69
2023/01/09 10:30:48;;;;;;;16.05;10.07;;;;;;;8.26;100.00;93003.44;5090003;28;20044;-69
2023/01/09 10:33:35;;;;;;;19.88;12.77;;;;;;;8.41;100.00;93009.13;5089667;28;20420;-69
2023/01/09 10:36:17;;;;;;;25.77;16.52;;;;;;;8.58;100.00;93003.59;5089628;28;20098;-69
2023/01/09 10:38:48;;;;;;;29.63;18.92;;;;;;;8.54;100.00;92987.06;5089803;28;20120;-69
2023/01/09 10:41:20;;;;;;;15.13;10.30;;;;;;;8.63;100.00;92979.94;5089768;28;20109;-69
2023/01/09 10:43:54;;;;;;;11.93;8.57;;;;;;;8.67;100.00;92983.66;5089414;28;20056;-69
2023/01/09 10:46:24;;;;;;;11.20;8.20;;;;;;;8.66;100.00;92975.19;5089432;28;20541;-69
2023/01/09 10:48:55;;;;;;;11.45;6.78;;;;;;;8.74;100.00;92963.94;5089647;28;20040;-69
2023/01/09 10:51:30;;;;;;;34.42;24.15;;;;;;;8.98;100.00;92969.31;5089695;28;20048;-69
2023/01/09 10:53:58;;;;;;;11.05;6.53;;;;;;;9.04;100.00;92954.91;5089557;28;20036;-69
2023/01/09 10:56:27;;;;;;;9.45;6.95;;;;;;;9.03;100.00;92951.56;5089518;28;20056;-69
2023/01/09 10:58:55;;;;;;;15.10;11.75;;;;;;;9.14;100.00;92944.22;5089557;28;20048;-69
2023/01/09 11:01:26;;;;;;;22.60;13.15;;;;;;;9.16;100.00;92937.13;5089431;28;20128;-69
2023/01/09 11:03:53;;;;;;;12.07;7.43;;;;;;;9.07;100.00;92939.91;5089126;28;20040;-69
2023/01/09 11:06:24;;;;;;;18.70;11.68;;;;;;;9.13;100.00;92928.06;5089222;28;20058;-70
2023/01/09 11:08:55;;;;;;;18.75;12.13;;;;;;;9.13;100.00;92940.06;5088991;28;20464;-70
2023/01/09 11:11:33;;;;;;;17.27;11.57;;;;;;;9.20;100.00;92944.16;5086698;28;20044;-70
2023/01/09 11:14:07;;;;;;;20.25;12.18;;;;;;;9.15;100.00;92938.88;5076217;28;20411;-70
2023/01/09 11:16:34;;;;;;;17.48;9.70;;;;;;;9.21;100.00;92938.06;5088578;28;20063;-69
2023/01/09 11:19:01;;;;;;;10.60;6.53;;;;;;;9.18;100.00;92925.66;5088870;28;20511;-70
2023/01/09 11:21:34;;;;;;;12.60;7.40;;;;;;;9.18;100.00;92910.28;5088977;28;20499;-70
2023/01/09 11:24:27;;;;;;;12.90;7.15;;;;;;;9.27;100.00;92910.03;5075852;28;20496;-69
2023/01/09 11:27:26;;;;;;;8.00;5.32;;;;;;;9.25;100.00;92901.75;5088772;28;20581;-70
2023/01/09 11:30:15;;;;;;;8.93;5.70;;;;;;;9.20;100.00;92898.03;5088989;28;20089;-69
2023/01/09 11:32:43;;;;;;;9.63;5.07;;;;;;;9.28;100.00;92902.13;5088720;28;20093;-70
2023/01/09 11:35:19;;;;;;;9.80;5.18;;;;;;;9.31;100.00;92890.69;5072418;28;20094;-69
2023/01/09 11:37:47;;;;;;;10.50;4.80;;;;;;;9.52;99.90;92901.53;5068108;28;20059;-70
2023/01/09 11:40:19;;;;;;;13.95;5.43;;;;;;;9.43;99.79;92889.00;5080240;28;20086;-70
2023/01/09 11:43:03;;;;;;;13.88;5.68;;;;;;;9.54;100.00;92902.13;5088502;28;20101;-70